Time;durP1;ratioP1;P1;durP2;ratioP2;P2;SDS_P1;SDS_P2;PMS_P1;PMS_P2;Temp;Humidity;BMP_temperature;BMP_pressure;BME280_temperature;BME280_humidity;BME280_pressure;Samples;Min_cycle;Max_cycle;Signal;HPM_P1;HPM_P2
2022/09/23 00:01:20;;;;;;;5.45;1.70;;;;;;;8.38;85.71;99354.24;1680277;85;20994;-79
2022/09/23 00:03:48;;;;;;;4.97;2.58;;;;;;;8.34;84.52;99357.75;1684388;84;21089;-78
2022/09/23 00:06:19;;;;;;;4.40;2.40;;;;;;;8.27;85.55;99351.77;1681501;84;20976;-79
2022/09/23 00:08:48;;;;;;;3.42;1.87;;;;;;;8.23;85.02;99358.30;1697050;84;20942;-85
2022/09/23 00:11:20;;;;;;;4.10;1.85;;;;;;;8.21;85.56;99356.16;1685798;85;21124;-85
2022/09/23 00:13:49;;;;;;;4.53;2.17;;;;;;;;;;1686769;85;21493;-84
2022/09/23 00:16:22;;;;;;;4.30;1.82;;;;;;;8.17;86.06;99351.45;1676001;85;21028;-83
2022/09/23 00:18:50;;;;;;;3.25;1.80;;;;;;;8.13;85.87;99351.91;1682479;84;21013;-81
2022/09/23 00:21:19;;;;;;;5.78;2.20;;;;;;;8.13;86.42;99349.33;1683151;84;21000;-78
2022/09/23 00:23:47;;;;;;;4.00;1.92;;;;;;;8.11;85.56;99348.93;1683409;84;21546;-78
2022/09/23 00:26:18;;;;;;;6.97;1.90;;;;;;;8.10;85.49;99353.27;1684142;85;21643;-79
2022/09/23 00:28:47;;;;;;;3.87;1.85;;;;;;;8.09;85.64;99352.83;1698600;84;20977;-79
2022/09/23 00:31:22;;;;;;;3.85;2.12;;;;;;;8.04;85.50;99355.04;1683609;84;20975;-78
2022/09/23 00:33:58;;;;;;;5.17;2.33;;;;;;;7.94;86.00;99349.12;1683062;85;21014;-78
2022/09/23 00:36:28;;;;;;;4.47;2.17;;;;;;;7.88;85.83;99351.78;1679056;85;20989;-77
2022/09/23 00:38:56;;;;;;;4.35;2.27;;;;;;;7.83;85.47;99351.80;1694567;84;21011;-78
2022/09/23 00:41:24;;;;;;;4.28;2.17;;;;;;;7.83;85.97;99350.95;1681108;84;20986;-80
2022/09/23 00:43:56;;;;;;;4.78;2.30;;;;;;;7.80;86.91;99344.09;1681652;85;21013;-79
2022/09/23 00:46:42;;;;;;;5.37;2.65;;;;;;;7.80;87.58;99341.50;1683649;85;21501;-78
2022/09/23 00:49:26;;;;;;;4.50;2.33;;;;;;;7.80;87.26;99345.38;1682071;85;20986;-78
2022/09/23 00:52:02;;;;;;;4.87;2.35;;;;;;;7.84;87.27;99341.00;1660184;86;21070;-78
2022/09/23 00:54:29;;;;;;;5.12;2.62;;;;;;;7.83;87.31;99346.63;1668294;86;21027;-78
2022/09/23 00:56:59;;;;;;;3.92;2.27;;;;;;;7.84;87.46;99344.89;1664919;86;20998;-79
2022/09/23 00:59:27;;;;;;;4.20;2.30;;;;;;;7.86;87.37;99348.31;1686651;85;21530;-77
2022/09/23 01:01:58;;;;;;;4.33;2.40;;;;;;;7.86;87.59;99348.31;1668253;86;20998;-78
2022/09/23 01:04:27;;;;;;;4.22;2.30;;;;;;;7.88;86.83;99351.78;1675294;85;21049;-78
2022/09/23 01:06:55;;;;;;;8.48;2.67;;;;;;;7.84;85.92;99350.95;1666618;86;20998;-79
2022/09/23 01:09:24;;;;;;;4.58;2.80;;;;;;;7.81;86.22;99349.67;1672100;85;21022;-78
2022/09/23 01:12:17;;;;;;;4.00;2.65;;;;;;;7.78;86.74;99353.59;1671649;86;21018;-79
2022/09/23 01:14:53;;;;;;;7.22;2.60;;;;;;;7.80;86.34;99350.56;1666614;86;21062;-78
2022/09/23 01:17:38;;;;;;;5.78;3.02;;;;;;;7.79;86.78;99349.27;1653428;86;21058;-79
2022/09/23 01:20:14;;;;;;;8.65;2.37;;;;;;;7.79;86.93;99354.45;1666447;85;20960;-78
2022/09/23 01:22:50;;;;;;;5.87;2.75;;;;;;;7.78;86.01;99354.89;1670917;86;20998;-79
2022/09/23 01:25:35;;;;;;;7.70;2.65;;;;;;;7.79;87.32;99351.41;1666580;85;21011;-79
2022/09/23 01:28:29;;;;;;;4.33;2.50;;;;;;;7.82;87.67;99353.98;1654930;85;21025;-78
2022/09/23 01:31:19;;;;;;;5.50;3.62;;;;;;;7.90;87.68;99353.92;1661110;85;21519;-79
2022/09/23 01:34:07;;;;;;;5.50;3.02;;;;;;;7.96;88.19;99355.99;1637750;86;21033;-79
2022/09/23 01:36:51;;;;;;;6.95;3.35;;;;;;;8.01;87.67;99357.67;1628274;86;21097;-79
2022/09/23 01:39:45;;;;;;;8.93;3.95;;;;;;;7.99;86.57;99359.42;1668297;86;21014;-79
2022/09/23 01:42:30;;;;;;;6.08;3.37;;;;;;;7.95;87.43;99352.97;1670426;86;21010;-80
2022/09/23 01:45:09;;;;;;;7.00;4.12;;;;;;;7.95;86.95;99351.67;1669921;85;21498;-80
2022/09/23 01:47:57;;;;;;;9.60;3.60;;;;;;;7.93;87.84;99347.39;1670704;86;20994;-78
2022/09/23 01:50:55;;;;;;;6.53;3.77;;;;;;;7.94;88.24;99353.02;1644433;87;21002;-78
2022/09/23 01:53:48;;;;;;;6.62;3.45;;;;;;;7.91;88.30;99356.91;1654347;87;21003;-78
2022/09/23 01:56:27;;;;;;;6.62;3.35;;;;;;;7.81;88.68;99359.17;1645730;86;21014;-77
2022/09/23 01:59:08;;;;;;;6.72;3.47;;;;;;;7.73;89.74;99351.03;1650035;86;20994;-78
2022/09/23 02:01:47;;;;;;;6.78;3.08;;;;;;;7.69;89.45;99355.81;1642093;87;21519;-79
2022/09/23 02:04:29;;;;;;;6.78;3.67;;;;;;;7.64;89.17;99368.37;1646736;86;21031;-78
2022/09/23 02:07:02;;;;;;;6.85;3.50;;;;;;;7.60;91.08;99368.86;1637273;87;21043;-78
2022/09/23 02:09:37;;;;;;;8.00;3.12;;;;;;;7.59;91.56;99369.71;1643557;87;21010;-79
2022/09/23 02:12:11;;;;;;;7.62;4.47;;;;;;;7.62;90.29;99372.70;1644085;87;21063;-81
2022/09/23 02:14:49;;;;;;;6.20;3.25;;;;;;;7.64;90.63;99363.20;1661878;86;21071;-78
2022/09/23 02:17:22;;;;;;;8.23;3.67;;;;;;;7.64;90.96;99367.08;1662336;85;20973;-78
2022/09/23 02:19:59;;;;;;;7.45;3.52;;;;;;;7.60;91.03;99370.56;1660882;85;21074;-80
2022/09/23 02:22:38;;;;;;;7.42;3.87;;;;;;;7.57;91.46;99371.02;1678164;85;21057;-77
2022/09/23 02:25:08;;;;;;;6.35;3.65;;;;;;;7.53;90.65;99368.48;1678392;85;21532;-79
2022/09/23 02:27:50;;;;;;;6.53;4.05;;;;;;;7.49;92.40;99365.49;1645548;85;21574;-78
2022/09/23 02:30:30;;;;;;;9.88;3.70;;;;;;;7.48;91.79;99368.94;1659838;86;21039;-80
2022/09/23 02:33:10;;;;;;;7.42;3.50;;;;;;;7.47;91.16;99367.23;1665593;84;21062;-80
2022/09/23 02:36:07;;;;;;;7.95;3.83;;;;;;;7.42;92.70;99368.98;1666069;86;21054;-78
2022/09/23 02:38:40;;;;;;;9.35;3.50;;;;;;;7.44;92.77;99369.83;1666694;86;21074;-77
2022/09/23 02:41:22;;;;;;;9.08;4.30;;;;;;;7.51;90.98;99374.09;1670185;86;21030;-78
2022/09/23 02:44:11;;;;;;;6.58;3.40;;;;;;;7.48;91.83;99372.41;1657293;86;21021;-78
2022/09/23 02:46:42;;;;;;;9.05;3.20;;;;;;;7.43;92.68;99379.77;1664444;86;21060;-79
2022/09/23 02:49:29;;;;;;;5.83;3.55;;;;;;;7.45;92.94;99373.70;1670877;86;21614;-79
2022/09/23 02:52:03;;;;;;;10.85;3.30;;;;;;;7.49;91.93;99377.13;1673752;86;21002;-80
2022/09/23 02:54:32;;;;;;;6.10;3.55;;;;;;;7.50;92.49;99371.95;1665372;85;21061;-77
2022/09/23 02:57:04;;;;;;;8.13;3.37;;;;;;;7.52;92.69;99375.39;1665330;86;21067;-78
2022/09/23 02:59:33;;;;;;;7.08;3.67;;;;;;;7.53;92.80;99376.23;1666105;85;21042;-80
2022/09/23 03:02:37;;;;;;;6.87;3.37;;;;;;;7.56;92.11;99377.52;1660865;85;20981;-82
2022/09/23 03:05:22;;;;;;;6.22;3.00;;;;;;;7.59;92.20;99374.89;1666746;85;21917;-82
2022/09/23 03:08:18;;;;;;;19.35;7.50;;;;;;;7.67;91.13;99378.70;1683447;85;21017;-79
2022/09/23 03:11:03;;;;;;;6.00;3.77;;;;;;;7.61;91.53;99377.47;1669429;86;21018;-78
2022/09/23 03:13:52;;;;;;;7.72;3.98;;;;;;;7.62;91.42;99376.17;1666702;85;21001;-78
2022/09/23 03:16:46;;;;;;;9.25;3.67;;;;;;;7.60;92.15;99376.63;1649115;86;21053;-80
2022/09/23 03:19:45;;;;;;;6.40;3.22;;;;;;;7.62;92.03;99379.17;1667618;86;21001;-80
2022/09/23 03:22:41;;;;;;;6.70;3.25;;;;;;;7.65;90.56;99383.89;1676732;85;21450;-78
2022/09/23 03:25:14;;;;;;;6.80;3.42;;;;;;;7.59;92.12;99385.69;1662506;86;20998;-78
2022/09/23 03:27:44;;;;;;;9.10;3.42;;;;;;;7.60;91.37;99381.80;1666864;86;21007;-79
2022/09/23 03:30:14;;;;;;;7.47;3.10;;;;;;;7.57;92.19;99382.66;1647284;87;20991;-79
2022/09/23 03:32:45;;;;;;;8.10;3.08;;;;;;;7.58;91.30;99384.83;1653088;84;21066;-80
2022/09/23 03:35:14;;;;;;;7.33;3.00;;;;;;;7.55;91.89;99386.98;1646710;85;21055;-78
2022/09/23 03:37:49;;;;;;;6.42;3.50;;;;;;;7.61;91.17;99386.53;1650885;86;21017;-79
2022/09/23 03:40:27;;;;;;;7.70;3.27;;;;;;;7.53;92.01;99382.27;1641416;87;21046;-78
2022/09/23 03:42:57;;;;;;;6.58;3.42;;;;;;;7.51;92.44;99376.69;1647773;87;21538;-77
2022/09/23 03:45:31;;;;;;;5.92;3.08;;;;;;;7.56;91.39;99382.70;1645495;87;21030;-76
2022/09/23 03:47:59;;;;;;;7.62;3.25;;;;;;;7.52;91.50;99379.68;1651243;87;21054;-78
2022/09/23 03:50:27;;;;;;;7.45;3.00;;;;;;;7.51;90.98;99380.12;1648402;87;20999;-83
2022/09/23 03:52:55;;;;;;;5.95;3.25;;;;;;;7.50;91.05;99378.83;1645242;87;21017;-78
2022/09/23 03:55:22;;;;;;;6.67;3.42;;;;;;;7.46;91.94;99380.61;1650470;86;21002;-79
2022/09/23 03:57:50;;;;;;;6.60;3.15;;;;;;;7.47;91.54;99373.70;1659616;85;21029;-78
2022/09/23 04:00:18;;;;;;;5.65;3.25;;;;;;;7.47;90.61;99383.61;1690567;85;21017;-79
2022/09/23 04:02:45;;;;;;;5.75;2.90;;;;;;;7.44;91.50;99382.77;1662993;84;20953;-77
2022/09/23 04:05:13;;;;;;;5.42;3.00;;;;;;;7.43;91.12;99383.66;1672556;86;21046;-79
2022/09/23 04:07:41;;;;;;;9.63;3.40;;;;;;;7.44;91.37;99384.06;1668161;85;21012;-79
2022/09/23 04:10:09;;;;;;;8.58;3.35;;;;;;;7.49;90.70;99392.66;1689642;84;21498;-79
2022/09/23 04:12:37;;;;;;;5.90;3.08;;;;;;;7.44;90.43;99388.83;1660429;84;21030;-78
2022/09/23 04:15:06;;;;;;;6.97;3.08;;;;;;;7.43;91.09;99392.70;1680967;84;20993;-78
2022/09/23 04:17:33;;;;;;;6.72;3.60;;;;;;;7.39;91.65;99389.72;1620141;87;21079;-78
2022/09/23 04:20:01;;;;;;;6.87;4.03;;;;;;;7.39;91.77;99384.55;1640597;87;21035;-78
2022/09/23 04:22:29;;;;;;;9.03;4.05;;;;;;;7.39;92.51;99387.98;1635540;86;21033;-78
2022/09/23 04:24:57;;;;;;;15.60;4.22;;;;;;;7.44;91.72;99386.64;1674503;85;20978;-78
2022/09/23 04:27:24;;;;;;;5.92;3.30;;;;;;;7.46;91.40;99390.08;1673260;86;21028;-78
2022/09/23 04:29:52;;;;;;;8.65;3.72;;;;;;;7.43;92.05;99394.00;1664278;86;21071;-78
2022/09/23 04:32:19;;;;;;;8.40;3.90;;;;;;;7.45;91.44;99386.64;1666214;85;21081;-80
2022/09/23 04:34:47;;;;;;;6.95;3.20;;;;;;;7.44;91.83;99393.11;1667059;86;21010;-78
2022/09/23 04:37:14;;;;;;;10.82;3.58;;;;;;;7.48;91.55;99390.92;1666282;86;21033;-81
2022/09/23 04:39:42;;;;;;;7.53;3.50;;;;;;;7.46;91.78;99390.96;1670276;86;21106;-78
2022/09/23 04:42:09;;;;;;;6.17;3.35;;;;;;;7.47;91.65;99388.78;1668557;85;21050;-78
2022/09/23 04:44:37;;;;;;;9.03;3.15;;;;;;;7.49;91.81;99390.06;1672608;86;21588;-78
2022/09/23 04:47:05;;;;;;;9.90;5.00;;;;;;;7.52;91.86;99383.56;1668295;85;21761;-80
2022/09/23 04:49:33;;;;;;;10.43;4.55;;;;;;;7.56;92.01;99391.75;1668295;85;21133;-79
2022/09/23 04:52:01;;;;;;;8.73;4.10;;;;;;;7.53;91.99;99393.05;1628156;88;21048;-81
2022/09/23 04:54:29;;;;;;;12.15;4.25;;;;;;;7.56;91.64;99391.75;1636982;86;21001;-78
2022/09/23 04:56:56;;;;;;;6.95;3.85;;;;;;;7.59;91.29;99381.80;1640870;87;20962;-78
2022/09/23 04:59:24;;;;;;;8.00;3.12;;;;;;;7.56;91.40;99379.66;1671802;85;21010;-77
2022/09/23 05:01:54;;;;;;;7.53;3.20;;;;;;;7.58;91.18;99393.89;1670684;85;20979;-78
2022/09/23 05:04:21;;;;;;;7.78;3.52;;;;;;;7.61;90.61;99389.11;1667981;86;21057;-78
2022/09/23 05:06:49;;;;;;;5.92;3.33;;;;;;;7.58;90.88;99383.54;1676279;86;21357;-79
2022/09/23 05:09:17;;;;;;;10.48;3.70;;;;;;;7.54;90.61;99390.46;1672646;86;21500;-79
2022/09/23 05:11:44;;;;;;;7.22;3.58;;;;;;;7.51;90.58;99396.09;1661466;86;21052;-79
2022/09/23 05:14:12;;;;;;;12.80;3.95;;;;;;;7.45;90.89;99396.98;1690457;85;21060;-78
2022/09/23 05:16:40;;;;;;;13.25;4.15;;;;;;;7.43;90.23;99400.47;1657261;85;20973;-80
2022/09/23 05:19:07;;;;;;;9.68;3.83;;;;;;;7.43;90.13;99410.38;1673287;84;21003;-79
2022/09/23 05:21:36;;;;;;;13.05;4.05;;;;;;;7.37;90.72;99400.07;1640787;86;21022;-78
2022/09/23 05:24:04;;;;;;;9.98;4.30;;;;;;;7.42;90.17;99411.67;1668457;84;21029;-75
2022/09/23 05:26:32;;;;;;;10.40;4.65;;;;;;;7.40;90.44;99417.29;1660184;85;20945;-80
2022/09/23 05:29:00;;;;;;;13.40;5.87;;;;;;;7.37;90.76;99414.30;1675925;84;21001;-82
2022/09/23 05:31:29;;;;;;;18.92;5.40;;;;;;;7.37;91.07;99420.32;1677702;84;21105;-79
2022/09/23 05:34:02;;;;;;;15.68;5.62;;;;;;;7.39;90.67;99416.88;1670658;84;21761;-79
2022/09/23 05:36:33;;;;;;;15.38;5.80;;;;;;;7.40;91.82;99413.41;1671494;84;21046;-78
2022/09/23 05:39:02;;;;;;;15.50;5.55;;;;;;;7.46;91.01;99414.25;1672052;84;21014;-84
2022/09/23 05:41:30;;;;;;;15.63;4.85;;;;;;;7.50;91.93;99409.88;1657031;85;21741;-79
2022/09/23 05:43:58;;;;;;;9.68;4.62;;;;;;;7.60;91.63;99415.44;1673487;84;21474;-79
2022/09/23 05:46:29;;;;;;;18.55;6.40;;;;;;;7.75;90.87;99418.31;1672618;84;21101;-81
2022/09/23 05:48:58;;;;;;;16.30;8.13;;;;;;;7.79;90.89;99414.83;1660846;86;21441;-80
2022/09/23 05:51:27;;;;;;;12.23;6.65;;;;;;;7.87;91.23;99416.06;1633094;86;20999;-79
2022/09/23 05:53:57;;;;;;;10.25;5.65;;;;;;;7.90;91.35;99415.60;1679057;84;21037;-81
2022/09/23 05:56:27;;;;;;;11.48;5.03;;;;;;;7.96;90.91;99418.13;1667542;86;21525;-88
2022/09/23 05:58:57;;;;;;;10.85;5.37;;;;;;;8.05;90.63;99423.65;1673865;86;20985;-85
2022/09/23 06:01:31;;;;;;;17.87;4.70;;;;;;;8.10;90.57;99415.86;1670489;84;21028;-84
2022/09/23 06:04:00;;;;;;;17.27;4.75;;;;;;;8.19;90.38;99413.59;1666527;86;20966;-79
2022/09/23 06:06:32;;;;;;;9.73;4.70;;;;;;;8.25;90.17;99422.59;1662451;86;21010;-85
2022/09/23 06:09:01;;;;;;;10.53;4.42;;;;;;;8.33;89.87;99420.33;1666072;86;21004;-80
2022/09/23 06:11:34;;;;;;;9.38;3.90;;;;;;;8.37;89.76;99425.05;1656424;86;21012;-79
2022/09/23 06:14:02;;;;;;;9.95;3.85;;;;;;;8.44;89.51;99422.01;1655643;85;21133;-79
2022/09/23 06:16:34;;;;;;;11.75;4.00;;;;;;;8.51;89.20;99427.08;1627498;86;21040;-83
2022/09/23 06:19:05;;;;;;;7.40;3.55;;;;;;;8.47;89.32;99424.55;1665588;86;21557;-79
2022/09/23 06:21:36;;;;;;;10.05;2.95;;;;;;;8.52;88.81;99420.19;1662425;86;20998;-79
2022/09/23 06:24:05;;;;;;;5.08;3.10;;;;;;;8.45;89.02;99429.73;1662580;86;21001;-78
2022/09/23 06:26:34;;;;;;;6.55;3.02;;;;;;;8.53;88.91;99425.36;1664288;86;21017;-81
2022/09/23 06:29:05;;;;;;;6.87;3.17;;;;;;;8.50;88.98;99427.97;1660904;86;21061;-84
2022/09/23 06:31:33;;;;;;;10.08;3.37;;;;;;;8.53;88.83;99421.88;1667018;86;21058;-80
2022/09/23 06:34:00;;;;;;;6.95;3.20;;;;;;;8.49;88.57;99435.30;1668767;86;21034;-78
2022/09/23 06:36:27;;;;;;;7.85;2.95;;;;;;;8.51;88.42;99430.97;1657989;85;20972;-79
2022/09/23 06:38:55;;;;;;;12.18;3.40;;;;;;;8.56;88.61;99433.52;1648324;86;21098;-79
2022/09/23 06:41:23;;;;;;;12.10;3.85;;;;;;;8.61;88.08;99439.49;1645451;86;21008;-77
2022/09/23 06:43:50;;;;;;;6.60;3.00;;;;;;;8.61;88.47;99429.58;1643196;86;21512;-79
2022/09/23 06:46:19;;;;;;;6.17;3.40;;;;;;;8.69;88.17;99427.74;1628868;86;21059;-77
2022/09/23 06:48:47;;;;;;;11.93;3.47;;;;;;;8.74;88.20;99427.27;1622094;88;21014;-78
2022/09/23 06:51:20;;;;;;;11.15;3.40;;;;;;;8.80;87.57;99428.92;1626114;87;21034;-79
2022/09/23 06:53:48;;;;;;;7.20;3.37;;;;;;;8.80;87.77;99429.77;1658052;86;21520;-81
2022/09/23 06:56:18;;;;;;;5.80;3.08;;;;;;;8.88;87.63;99433.12;1668761;85;21050;-79
2022/09/23 06:58:46;;;;;;;5.65;3.12;;;;;;;8.93;87.67;99430.47;1660727;86;21033;-78
2022/09/23 07:01:16;;;;;;;9.88;3.80;;;;;;;8.98;87.30;99432.57;1665949;86;21680;-79
2022/09/23 07:03:46;;;;;;;6.95;2.35;;;;;;;9.08;87.12;99430.72;1658776;86;21025;-80
2022/09/23 07:06:13;;;;;;;11.60;3.20;;;;;;;9.11;86.66;99427.64;1662754;86;21506;-77
2022/09/23 07:08:45;;;;;;;5.40;3.00;;;;;;;9.03;86.78;99437.69;1663548;86;21053;-80
2022/09/23 07:11:14;;;;;;;5.80;2.83;;;;;;;9.08;86.63;99437.20;1668395;86;21014;-79
2022/09/23 07:13:42;;;;;;;10.30;3.00;;;;;;;9.10;86.75;99439.33;1665523;86;21018;-78
2022/09/23 07:16:10;;;;;;;5.75;3.05;;;;;;;9.18;86.79;99436.64;1664912;86;21026;-79
2022/09/23 07:18:39;;;;;;;7.83;3.27;;;;;;;9.23;86.59;99431.81;1667336;86;21093;-81
2022/09/23 07:21:14;;;;;;;6.78;3.58;;;;;;;9.23;86.34;99434.40;1655355;86;21841;-79
2022/09/23 07:23:42;;;;;;;9.70;3.77;;;;;;;9.34;86.49;99432.94;1660157;86;21494;-80
2022/09/23 07:26:10;;;;;;;8.38;3.35;;;;;;;9.43;85.90;99442.31;1661191;86;20998;-80
2022/09/23 07:28:38;;;;;;;7.03;3.25;;;;;;;9.53;85.97;99437.42;1654890;85;20996;-83
2022/09/23 07:31:13;;;;;;;6.78;3.20;;;;;;;9.58;86.02;99437.34;1664061;86;20958;-81
2022/09/23 07:33:44;;;;;;;5.15;3.02;;;;;;;9.66;85.64;99432.44;1661996;86;21580;-80
2022/09/23 07:36:17;;;;;;;6.12;2.90;;;;;;;9.83;85.40;99435.19;1665553;84;20986;-80
2022/09/23 07:38:46;;;;;;;8.83;3.42;;;;;;;9.91;84.98;99434.65;1667491;86;21521;-79
2022/09/23 07:41:18;;;;;;;5.80;3.30;;;;;;;9.89;84.31;99437.27;1653533;85;20987;-77
2022/09/23 07:43:47;;;;;;;;;;;;;;;9.80;84.13;99437.41;1642657;86;21005;-78
2022/09/23 07:46:16;;;;;;;12.03;3.90;;;;;;;9.91;84.63;99438.55;1647187;85;20102;-81
2022/09/23 07:48:45;;;;;;;9.23;3.27;;;;;;;9.96;84.54;99441.45;1642455;87;21033;-79
2022/09/23 07:51:22;;;;;;;14.95;3.98;;;;;;;10.14;84.26;99444.17;1636385;86;21522;-79
2022/09/23 07:53:53;;;;;;;7.50;3.50;;;;;;;10.27;84.31;99440.08;1624204;87;21006;-77
2022/09/23 07:56:24;;;;;;;5.17;2.80;;;;;;;10.39;83.12;99439.88;1640889;87;20998;-78
2022/09/23 07:58:58;;;;;;;9.53;3.25;;;;;;;10.46;82.56;99439.30;1646725;87;21041;-78
2022/09/23 08:01:30;;;;;;;8.55;2.80;;;;;;;10.54;82.04;99435.69;1643189;87;21016;-79
2022/09/23 08:04:01;;;;;;;9.08;3.30;;;;;;;10.70;81.90;99436.25;1637755;87;21038;-78
2022/09/23 08:06:29;;;;;;;5.78;3.05;;;;;;;10.79;82.08;99432.59;1648114;86;21037;-80
2022/09/23 08:08:59;;;;;;;6.92;2.60;;;;;;;10.80;81.71;99425.63;1647503;86;21025;-80
2022/09/23 08:11:27;;;;;;;11.20;2.95;;;;;;;10.91;81.80;99424.98;1666113;85;21032;-78
2022/09/23 08:13:56;;;;;;;6.37;2.90;;;;;;;10.98;80.85;99425.69;1617906;87;20996;-77
2022/09/23 08:16:24;;;;;;;8.48;2.92;;;;;;;11.11;81.06;99425.84;1631987;87;21550;-82
2022/09/23 08:18:51;;;;;;;3.92;2.40;;;;;;;11.15;80.86;99420.98;1672449;85;21078;-80
2022/09/23 08:21:20;;;;;;;6.08;2.45;;;;;;;11.18;80.55;99422.23;1668482;86;21023;-79
2022/09/23 08:23:48;;;;;;;9.50;3.10;;;;;;;11.41;79.97;99416.94;1666089;85;21030;-80
2022/09/23 08:26:16;;;;;;;5.97;2.80;;;;;;;11.48;78.46;99418.48;1674586;85;21093;-80
2022/09/23 08:28:44;;;;;;;5.55;2.80;;;;;;;11.50;78.52;99418.03;1668567;85;21542;-78
2022/09/23 08:31:12;;;;;;;4.58;2.10;;;;;;;11.57;77.35;99410.47;1665158;86;21026;-86
2022/09/23 08:33:40;;;;;;;3.55;1.82;;;;;;;11.72;76.46;99415.31;1668220;86;20990;-80
2022/09/23 08:36:08;;;;;;;4.05;2.30;;;;;;;11.86;76.75;99417.57;1664337;84;21069;-78
2022/09/23 08:38:35;;;;;;;3.70;2.30;;;;;;;11.92;76.13;99413.54;1673651;85;21098;-79
2022/09/23 08:41:39;;;;;;;3.17;1.75;;;;;;;12.01;76.10;99405.08;1672564;85;20963;-79
2022/09/23 08:44:17;;;;;;;;;;;;;;;12.07;75.75;99405.75;1623841;86;21013;-79
2022/09/23 08:46:51;;;;;;;5.70;2.05;;;;;;;12.18;75.64;99403.34;1645674;86;20142;-83
2022/09/23 08:49:27;;;;;;;4.17;2.35;;;;;;;12.28;76.45;99406.11;1654886;86;21139;-84
2022/09/23 08:51:55;;;;;;;5.30;3.58;;;;;;;12.42;75.92;99401.81;1661594;86;21495;-81
2022/09/23 08:54:26;;;;;;;3.77;2.00;;;;;;;12.56;74.76;99400.13;1662065;85;21228;-81
2022/09/23 08:56:56;;;;;;;5.60;1.90;;;;;;;12.66;74.00;99398.50;1662889;85;21012;-84
2022/09/23 08:59:28;;;;;;;3.25;1.90;;;;;;;12.82;75.01;99391.55;1664724;85;21061;-79
2022/09/23 09:02:03;;;;;;;12.37;1.82;;;;;;;12.93;72.71;99384.23;1663220;85;21993;-79
2022/09/23 09:04:44;;;;;;;2.35;1.55;;;;;;;13.07;73.32;99389.91;1635023;87;21014;-80
2022/09/23 09:07:33;;;;;;;2.40;1.47;;;;;;;13.20;72.31;99382.55;1669881;86;21022;-82
2022/09/23 09:10:09;;;;;;;3.52;1.87;;;;;;;13.27;69.40;99380.58;1661603;86;20994;-81
2022/09/23 09:13:05;;;;;;;2.75;1.67;;;;;;;13.47;71.64;99372.17;1680801;85;21068;-79
2022/09/23 09:15:38;;;;;;;7.33;2.30;;;;;;;13.61;68.76;99371.69;1677064;85;21043;-81
2022/09/23 09:18:19;;;;;;;2.35;1.50;;;;;;;13.80;70.14;99374.55;1652381;86;20990;-83
2022/09/23 09:21:12;;;;;;;4.08;1.65;;;;;;;13.99;68.00;99373.03;1665796;86;21037;-79
2022/09/23 09:23:54;;;;;;;2.70;1.60;;;;;;;14.12;64.27;99377.36;1627490;86;21034;-84
2022/09/23 09:26:32;;;;;;;2.85;1.87;;;;;;;14.31;67.13;99377.11;1668166;86;21643;-84
2022/09/23 09:29:10;;;;;;;2.62;1.47;;;;;;;14.49;64.51;99374.28;1658430;86;21027;-84
2022/09/23 09:31:47;;;;;;;4.10;2.10;;;;;;;14.65;65.28;99376.37;1660379;86;21038;-81
2022/09/23 09:34:36;;;;;;;4.22;1.80;;;;;;;14.73;62.71;99380.02;1647897;86;20982;-80
2022/09/23 09:37:12;;;;;;;4.60;1.70;;;;;;;14.86;62.49;99379.50;1661998;86;21009;-83
2022/09/23 09:39:39;;;;;;;3.87;1.87;;;;;;;14.81;61.34;99383.20;1649590;86;21045;-80
2022/09/23 09:42:19;;;;;;;3.15;1.60;;;;;;;14.82;61.52;99380.53;1662017;86;20970;-82
2022/09/23 09:45:02;;;;;;;3.75;1.70;;;;;;;14.76;60.73;99380.73;1655480;86;20994;-80
2022/09/23 09:48:08;;;;;;;5.87;1.87;;;;;;;14.76;62.72;99380.73;1649935;86;21058;-84
2022/09/23 09:50:52;;;;;;;4.10;2.00;;;;;;;14.88;63.91;99375.48;1653292;86;21010;-80
2022/09/23 09:53:26;;;;;;;6.30;1.95;;;;;;;14.96;63.31;99377.38;1663870;86;21026;-82
2022/09/23 09:56:13;;;;;;;4.03;2.20;;;;;;;14.99;63.18;99378.56;1646953;86;21050;-83
2022/09/23 09:58:52;;;;;;;4.25;2.10;;;;;;;15.04;63.28;99378.37;1662094;85;21020;-79
2022/09/23 10:01:24;;;;;;;3.87;1.92;;;;;;;15.09;63.88;99380.37;1669539;85;21033;-82
2022/09/23 10:03:54;;;;;;;4.65;2.17;;;;;;;15.22;63.73;99368.94;1671171;86;21030;-84
2022/09/23 10:06:28;;;;;;;3.52;1.90;;;;;;;15.22;62.45;99369.81;1645872;86;20997;-85
2022/09/23 10:09:10;;;;;;;9.05;2.15;;;;;;;15.33;63.67;99373.77;1643647;87;21017;-85
2022/09/23 10:11:39;;;;;;;9.78;2.67;;;;;;;15.25;62.03;99375.37;1646324;86;21663;-81
2022/09/23 10:14:18;;;;;;;4.70;2.30;;;;;;;15.31;63.02;99373.36;1643337;87;21040;-79
2022/09/23 10:16:50;;;;;;;3.67;2.00;;;;;;;15.28;62.83;99366.95;1648028;87;20977;-80
2022/09/23 10:19:27;;;;;;;5.85;2.00;;;;;;;15.28;62.22;99370.88;1632334;87;21533;-81
2022/09/23 10:21:59;;;;;;;4.78;1.82;;;;;;;15.26;62.68;99367.90;1652060;86;21024;-81
2022/09/23 10:24:31;;;;;;;3.77;1.40;;;;;;;15.27;62.18;99360.45;1643647;87;21009;-80
2022/09/23 10:27:03;;;;;;;3.72;1.85;;;;;;;15.34;63.14;99361.05;1652312;86;20981;-79
2022/09/23 10:29:42;;;;;;;4.00;1.70;;;;;;;15.34;62.57;99354.50;1658203;85;21500;-83
2022/09/23 10:32:32;;;;;;;2.62;1.70;;;;;;;15.36;60.76;99361.84;1615925;87;21040;-83
2022/09/23 10:35:13;;;;;;;6.55;2.30;;;;;;;15.30;59.78;99362.50;1654338;85;20969;-84
2022/09/23 10:37:54;;;;;;;3.92;1.77;;;;;;;15.23;60.01;99367.58;1653846;85;21001;-84
2022/09/23 10:46:37;;;;;;;2.35;1.40;;;;;;;14.96;58.41;99355.56;1643618;87;21036;-81
2022/09/23 10:49:42;;;;;;;2.75;1.50;;;;;;;14.97;59.34;99354.67;1647321;87;20957;-80
2022/09/23 10:52:30;;;;;;;2.55;1.42;;;;;;;14.88;60.15;99348.00;1593255;88;21104;-82
2022/09/23 10:55:29;;;;;;;2.22;1.30;;;;;;;14.63;58.91;99341.56;1643991;85;21037;-82
2022/09/23 10:58:18;;;;;;;5.85;1.70;;;;;;;14.57;60.17;99340.03;1639451;87;21174;-85
2022/09/23 11:01:18;;;;;;;3.10;1.80;;;;;;;14.51;58.09;99333.22;1636184;87;21008;-83
2022/09/23 11:04:41;;;;;;;2.47;1.60;;;;;;;14.44;59.42;99326.53;1631692;88;21179;-81
2022/09/23 11:07:34;;;;;;;1.70;1.10;;;;;;;14.40;56.98;99328.84;1615355;87;21548;-83
2022/09/23 11:10:50;;;;;;;4.65;1.75;;;;;;;14.13;55.48;99334.17;1660142;86;21030;-80
2022/09/23 11:13:47;;;;;;;2.90;1.50;;;;;;;14.06;57.57;99332.67;1661646;86;21010;-82
2022/09/23 11:16:39;;;;;;;2.42;1.10;;;;;;;13.90;57.32;99336.74;1660221;86;21002;-82
2022/09/23 11:19:24;;;;;;;1.77;1.00;;;;;;;13.76;56.13;99329.84;1668569;86;21034;-85
2022/09/23 11:22:09;;;;;;;2.15;1.20;;;;;;;13.62;56.32;99325.93;1662790;85;21025;-85
2022/09/23 11:24:47;;;;;;;5.20;1.85;;;;;;;13.44;57.03;99327.86;1661802;84;21546;-85
2022/09/23 11:27:59;;;;;;;3.10;1.60;;;;;;;13.24;58.82;99320.19;1665535;86;21029;-79
2022/09/23 11:30:41;;;;;;;4.70;1.80;;;;;;;13.16;59.71;99320.89;1666735;84;21034;-81
2022/09/23 11:33:25;;;;;;;3.55;2.08;;;;;;;13.08;59.77;99325.50;1667402;86;21026;-82
2022/09/23 11:36:01;;;;;;;3.00;1.60;;;;;;;13.03;60.03;99320.87;1664619;84;21168;-83
2022/09/23 11:38:37;;;;;;;3.55;1.35;;;;;;;13.00;58.83;99330.11;1666410;85;21041;-81
2022/09/23 11:41:30;;;;;;;4.50;1.27;;;;;;;13.05;57.58;99332.11;1659012;84;21029;-79
2022/09/23 11:44:12;;;;;;;2.03;1.13;;;;;;;13.10;58.59;99330.22;1670742;84;21082;-81
2022/09/23 11:47:02;;;;;;;2.37;1.40;;;;;;;13.09;58.78;99324.58;1663630;84;21522;-84
2022/09/23 11:49:39;;;;;;;5.00;2.05;;;;;;;13.04;57.99;99334.34;1661029;86;20978;-83
2022/09/23 11:52:29;;;;;;;3.12;1.50;;;;;;;13.07;58.56;99332.48;1656857;86;20997;-80
2022/09/23 11:55:20;;;;;;;2.85;1.57;;;;;;;12.99;58.39;99342.75;1639480;85;21141;-81
2022/09/23 11:58:02;;;;;;;7.05;3.15;;;;;;;13.04;59.31;99331.72;1656565;85;21069;-81
2022/09/23 12:00:34;;;;;;;4.53;2.02;;;;;;;13.04;59.85;99331.72;1644698;87;20998;-80
2022/09/23 12:03:36;;;;;;;2.83;1.57;;;;;;;13.04;57.95;99331.72;1640850;87;21046;-84
2022/09/23 12:06:11;;;;;;;6.03;2.40;;;;;;;13.09;58.32;99333.72;1642346;87;20994;-80
2022/09/23 12:08:40;;;;;;;2.98;1.67;;;;;;;13.11;57.13;99348.45;1646384;87;21025;-82
2022/09/23 12:11:25;;;;;;;3.17;1.20;;;;;;;13.21;58.10;99349.45;1642458;87;21534;-82
2022/09/23 12:14:13;;;;;;;1.47;0.98;;;;;;;13.21;58.04;99358.16;1638723;87;21065;-83
2022/09/23 12:17:16;;;;;;;2.72;1.22;;;;;;;13.13;58.76;99358.39;1641170;87;21540;-80
2022/09/23 12:20:35;;;;;;;4.03;1.82;;;;;;;13.05;59.76;99368.23;1645436;87;21014;-82
2022/09/23 12:23:25;;;;;;;2.92;1.50;;;;;;;13.12;60.60;99368.42;1639288;87;21518;-82
2022/09/23 12:26:03;;;;;;;3.95;1.70;;;;;;;13.08;61.80;99365.96;1645633;86;21002;-82